createdAt,value
2023-03-26T00:00:12.096Z,99758.98
2023-03-26T00:00:37.822Z,99759.30
2023-03-26T00:00:59.810Z,99763.88
2023-03-26T00:01:23.125Z,99761.48
2023-03-26T00:01:46.318Z,99762.37
2023-03-26T00:02:08.129Z,99759.16
2023-03-26T00:02:30.174Z,99761.87
2023-03-26T00:02:52.017Z,99756.44
2023-03-26T00:03:17.411Z,99759.21
2023-03-26T00:03:42.012Z,99757.66
2023-03-26T00:04:06.591Z,99760.80
2023-03-26T00:04:28.984Z,99760.05
2023-03-26T00:04:52.686Z,99759.05
2023-03-26T00:05:16.468Z,99759.33
2023-03-26T00:05:40.896Z,99759.79
2023-03-26T00:06:07.419Z,99757.70
2023-03-26T00:06:30.706Z,99756.18
2023-03-26T00:06:53.574Z,99756.35
2023-03-26T00:07:16.120Z,99757.02
2023-03-26T00:07:37.755Z,99755.13
2023-03-26T00:08:00.067Z,99753.00
2023-03-26T00:08:21.837Z,99753.20
2023-03-26T00:08:44.381Z,99753.04
2023-03-26T00:09:10.008Z,99753.70
2023-03-26T00:09:38.234Z,99754.27
2023-03-26T00:10:06.473Z,99750.23
2023-03-26T00:10:28.457Z,99753.66
2023-03-26T00:10:50.408Z,99753.01
2023-03-26T00:11:14.991Z,99751.65
2023-03-26T00:11:39.128Z,99745.85
2023-03-26T00:12:03.179Z,99750.83
2023-03-26T00:12:28.318Z,99747.41
2023-03-26T00:12:51.842Z,99747.55
2023-03-26T00:13:13.632Z,99748.77
2023-03-26T00:13:37.979Z,99748.61
2023-03-26T00:13:59.852Z,99746.02
2023-03-26T00:14:21.747Z,99746.33
2023-03-26T00:14:44.343Z,99747.29
2023-03-26T00:15:07.357Z,99745.92
2023-03-26T00:15:29.100Z,99745.63
2023-03-26T00:15:52.368Z,99747.48
2023-03-26T00:16:15.897Z,99744.90
2023-03-26T00:16:37.684Z,99745.33
2023-03-26T00:16:59.455Z,99744.31
2023-03-26T00:17:22.465Z,99744.90
2023-03-26T00:17:47.014Z,99743.91
2023-03-26T00:18:15.440Z,99741.85
2023-03-26T00:18:41.962Z,99743.87
2023-03-26T00:19:05.882Z,99743.41
2023-03-26T00:19:29.692Z,99739.98
2023-03-26T00:19:53.109Z,99742.46
2023-03-26T00:20:15.511Z,99742.33
2023-03-26T00:20:37.906Z,99742.31
2023-03-26T00:21:00.411Z,99741.20
2023-03-26T00:21:27.101Z,99741.79
2023-03-26T00:21:51.135Z,99745.02
2023-03-26T00:22:13.777Z,99742.59
2023-03-26T00:22:35.626Z,99738.29
2023-03-26T00:23:00.807Z,99737.29
2023-03-26T00:23:22.576Z,99740.80
2023-03-26T00:23:44.867Z,99738.61
2023-03-26T00:24:15.652Z,99738.35
2023-03-26T00:24:45.307Z,99738.42
2023-03-26T00:25:07.704Z,99736.09
2023-03-26T00:25:37.773Z,99735.73
2023-03-26T00:26:00.376Z,99735.96
2023-03-26T00:26:23.427Z,99737.22
2023-03-26T00:26:51.010Z,99734.48
2023-03-26T00:27:14.015Z,99732.81
2023-03-26T00:27:37.563Z,99733.39
2023-03-26T00:27:59.849Z,99737.02
2023-03-26T00:28:22.749Z,99736.04
2023-03-26T00:28:44.936Z,99736.30
2023-03-26T00:29:07.848Z,99731.95
2023-03-26T00:29:32.701Z,99733.41
2023-03-26T00:29:56.253Z,99732.55
2023-03-26T00:30:18.736Z,99729.66
2023-03-26T00:30:41.290Z,99730.80
2023-03-26T00:31:04.583Z,99730.36
2023-03-26T00:31:26.940Z,99727.38
2023-03-26T00:31:56.923Z,99727.52
2023-03-26T00:32:18.695Z,99730.88
2023-03-26T00:32:41.954Z,99730.91
2023-03-26T00:33:04.262Z,99728.52
2023-03-26T00:33:26.234Z,99731.02
2023-03-26T00:33:48.190Z,99727.96
2023-03-26T00:34:09.876Z,99728.23
2023-03-26T00:34:33.903Z,99726.17
2023-03-26T00:35:01.044Z,99730.48
2023-03-26T00:35:23.513Z,99730.36
2023-03-26T00:35:48.067Z,99727.84
2023-03-26T00:36:11.440Z,99730.67
2023-03-26T00:36:35.240Z,99731.33
2023-03-26T00:37:01.893Z,99727.52
2023-03-26T00:37:27.360Z,99728.39
2023-03-26T00:37:50.917Z,99726.64
2023-03-26T00:38:15.940Z,99725.58
2023-03-26T00:38:38.334Z,99731.39
2023-03-26T00:39:00.737Z,99729.19
2023-03-26T00:39:25.080Z,99727.99
2023-03-26T00:39:48.635Z,99728.09
2023-03-26T00:40:10.828Z,99725.67
2023-03-26T00:40:36.260Z,99725.77
2023-03-26T00:41:05.308Z,99725.45
2023-03-26T00:41:30.363Z,99724.46
2023-03-26T00:41:53.682Z,99727.90
2023-03-26T00:42:15.597Z,99728.33
2023-03-26T00:42:37.765Z,99725.91
2023-03-26T00:42:59.553Z,99726.67
2023-03-26T00:43:26.284Z,99727.23
2023-03-26T00:43:49.766Z,99725.52
2023-03-26T00:44:12.691Z,99723.98
2023-03-26T00:44:37.029Z,99725.19
2023-03-26T00:45:00.678Z,99724.32
2023-03-26T00:45:24.272Z,99726.05
2023-03-26T00:45:47.958Z,99724.55
2023-03-26T00:46:09.736Z,99725.55
2023-03-26T00:46:31.821Z,99721.58
2023-03-26T00:46:55.804Z,99723.96
2023-03-26T00:47:18.405Z,99722.58
2023-03-26T00:47:40.987Z,99722.27
2023-03-26T00:48:02.862Z,99723.73
2023-03-26T00:48:42.263Z,99722.20
2023-03-26T00:49:10.091Z,99722.17
2023-03-26T00:49:33.718Z,99719.98
2023-03-26T00:49:58.260Z,99724.02
2023-03-26T00:50:20.461Z,99721.45
2023-03-26T00:50:42.958Z,99722.19
2023-03-26T00:51:05.352Z,99719.73
2023-03-26T00:51:27.925Z,99719.95
2023-03-26T00:51:49.843Z,99720.88
2023-03-26T00:52:11.772Z,99721.24
2023-03-26T00:52:35.564Z,99718.13
2023-03-26T00:52:59.092Z,99723.13
2023-03-26T00:53:21.521Z,99722.50
2023-03-26T00:53:46.489Z,99718.17
2023-03-26T00:54:08.422Z,99722.10
2023-03-26T00:54:32.171Z,99717.54
2023-03-26T00:54:54.042Z,99719.12
2023-03-26T00:55:16.365Z,99719.92
2023-03-26T00:55:42.113Z,99720.13
2023-03-26T00:56:07.100Z,99722.98
2023-03-26T00:56:31.072Z,99720.58
2023-03-26T00:56:55.508Z,99719.29
2023-03-26T00:57:25.790Z,99718.08
2023-03-26T00:57:56.806Z,99719.48
2023-03-26T00:58:21.598Z,99714.39
2023-03-26T00:58:44.053Z,99718.89
2023-03-26T00:59:05.750Z,99716.48
2023-03-26T00:59:29.774Z,99720.97
2023-03-26T00:59:51.701Z,99717.27
2023-03-26T01:00:15.343Z,99717.71
2023-03-26T01:00:41.773Z,99715.48
2023-03-26T01:01:05.241Z,99714.82
2023-03-26T01:01:28.483Z,99717.01
2023-03-26T01:01:54.340Z,99711.52
2023-03-26T01:02:18.691Z,99712.34
2023-03-26T01:02:44.544Z,99710.23
2023-03-26T01:03:07.302Z,99714.19
2023-03-26T01:03:33.274Z,99712.77
2023-03-26T01:04:07.473Z,99710.71
2023-03-26T01:04:34.056Z,99712.70
2023-03-26T01:04:56.879Z,99708.00
2023-03-26T01:05:34.275Z,99711.92
2023-03-26T01:06:04.076Z,99709.50
2023-03-26T01:06:32.206Z,99706.92
2023-03-26T01:06:55.012Z,99710.70
2023-03-26T01:07:21.153Z,99705.35
2023-03-26T01:07:44.169Z,99706.81
2023-03-26T01:08:17.326Z,99706.22
2023-03-26T01:08:46.146Z,99705.23
2023-03-26T01:09:12.858Z,99707.96
2023-03-26T01:09:35.243Z,99703.24
2023-03-26T01:10:01.627Z,99705.45
2023-03-26T01:10:23.924Z,99704.83
2023-03-26T01:10:50.339Z,99704.99
2023-03-26T01:11:17.306Z,99699.05
2023-03-26T01:11:39.323Z,99701.66
2023-03-26T01:12:01.696Z,99701.37
2023-03-26T01:12:26.749Z,99697.66
2023-03-26T01:12:49.045Z,99700.90
2023-03-26T01:13:10.659Z,99695.38
2023-03-26T01:13:36.402Z,99695.95
2023-03-26T01:13:59.970Z,99696.67
2023-03-26T01:14:23.080Z,99694.58
2023-03-26T01:14:46.265Z,99695.38
2023-03-26T01:15:09.265Z,99697.83
2023-03-26T01:15:31.898Z,99689.24
2023-03-26T01:15:53.730Z,99693.95
2023-03-26T01:16:21.423Z,99692.55
2023-03-26T01:17:01.771Z,99695.13
2023-03-26T01:17:23.898Z,99692.28
2023-03-26T01:17:46.314Z,99694.55
2023-03-26T01:18:09.367Z,99694.84
2023-03-26T01:18:33.232Z,99692.08
2023-03-26T01:18:58.158Z,99694.10
2023-03-26T01:19:33.288Z,99691.45
2023-03-26T01:20:11.791Z,99693.54
2023-03-26T01:20:33.479Z,99694.98
2023-03-26T01:21:04.606Z,99691.42
2023-03-26T01:21:29.556Z,99694.27
2023-03-26T01:21:51.611Z,99688.57
2023-03-26T01:22:15.139Z,99687.80
2023-03-26T01:22:37.165Z,99691.81
2023-03-26T01:23:04.637Z,99690.48
2023-03-26T01:23:28.770Z,99687.75
2023-03-26T01:23:59.662Z,99690.70
2023-03-26T01:24:21.551Z,99687.18
2023-03-26T01:24:45.681Z,99688.84
2023-03-26T01:25:08.933Z,99685.59
2023-03-26T01:25:32.120Z,99690.26
2023-03-26T01:25:56.593Z,99688.55
2023-03-26T01:26:38.284Z,99683.68
2023-03-26T01:27:01.000Z,99684.56
2023-03-26T01:27:25.155Z,99685.70
2023-03-26T01:27:51.521Z,99680.66
2023-03-26T01:28:16.905Z,99684.93
2023-03-26T01:28:40.913Z,99683.77
2023-03-26T01:29:03.110Z,99685.40
2023-03-26T01:29:39.013Z,99682.65
2023-03-26T01:30:12.962Z,99682.92
2023-03-26T01:30:51.008Z,99685.48
2023-03-26T01:31:36.526Z,99683.15
2023-03-26T01:32:01.677Z,99680.27
2023-03-26T01:32:43.463Z,99678.02
2023-03-26T01:33:13.307Z,99678.42
2023-03-26T01:33:37.036Z,99675.54
2023-03-26T01:34:02.261Z,99674.79
2023-03-26T01:34:30.078Z,99673.48
2023-03-26T01:35:12.623Z,99673.69
2023-03-26T01:35:34.883Z,99675.67
2023-03-26T01:36:00.540Z,99674.67
2023-03-26T01:36:28.676Z,99673.39
2023-03-26T01:36:56.329Z,99672.73
2023-03-26T01:37:21.186Z,99673.45
2023-03-26T01:38:01.511Z,99674.31
2023-03-26T01:38:47.709Z,99671.86
2023-03-26T01:39:38.335Z,99675.52
2023-03-26T01:40:06.311Z,99674.34
2023-03-26T01:40:31.209Z,99676.48
2023-03-26T01:41:02.570Z,99673.73
2023-03-26T01:41:35.744Z,99672.84
2023-03-26T01:41:57.837Z,99671.71
2023-03-26T01:42:32.856Z,99675.68
2023-03-26T01:42:57.784Z,99673.36
2023-03-26T01:43:39.189Z,99671.95
2023-03-26T01:44:06.192Z,99674.23
2023-03-26T01:44:38.099Z,99671.71
2023-03-26T01:45:03.150Z,99674.33
2023-03-26T01:45:25.866Z,99672.14
2023-03-26T01:45:47.543Z,99671.38
2023-03-26T01:46:09.867Z,99672.14
2023-03-26T01:46:35.626Z,99671.98
2023-03-26T01:46:58.672Z,99669.84
2023-03-26T01:47:20.933Z,99673.31
2023-03-26T01:47:42.863Z,99668.98
2023-03-26T01:48:06.657Z,99668.92
2023-03-26T01:48:31.803Z,99673.02
2023-03-26T01:48:53.579Z,99669.46
2023-03-26T01:49:15.473Z,99667.45
2023-03-26T01:49:37.763Z,99666.70
2023-03-26T01:49:59.447Z,99668.04
2023-03-26T01:50:21.247Z,99669.59
2023-03-26T01:50:43.027Z,99671.91
2023-03-26T01:51:05.311Z,99666.41
2023-03-26T01:51:30.781Z,99668.01
2023-03-26T01:51:57.315Z,99667.93
2023-03-26T01:52:20.725Z,99672.68
2023-03-26T01:52:45.540Z,99671.11
2023-03-26T01:53:08.695Z,99666.38
2023-03-26T01:53:31.258Z,99673.23
2023-03-26T01:53:53.149Z,99670.15
2023-03-26T01:54:16.460Z,99667.39
2023-03-26T01:54:38.758Z,99668.70
2023-03-26T01:55:02.114Z,99666.02
2023-03-26T01:55:25.803Z,99666.82
2023-03-26T01:55:55.534Z,99664.11
2023-03-26T01:56:36.168Z,99666.50
2023-03-26T01:57:10.273Z,99665.23
2023-03-26T01:57:51.790Z,99665.00
2023-03-26T01:58:22.163Z,99665.70
2023-03-26T01:58:46.675Z,99668.04
2023-03-26T01:59:34.229Z,99664.41
2023-03-26T01:59:59.309Z,99665.73
2023-03-26T02:00:27.311Z,99664.55
2023-03-26T02:01:05.805Z,99664.01
2023-03-26T02:01:44.303Z,99663.64
2023-03-26T02:02:12.069Z,99663.32
2023-03-26T02:02:51.688Z,99666.33
2023-03-26T02:03:19.931Z,99663.48
2023-03-26T02:03:50.943Z,99666.13
2023-03-26T02:04:23.609Z,99667.02
2023-03-26T02:04:53.643Z,99668.48
2023-03-26T02:05:22.280Z,99666.05
2023-03-26T02:05:50.024Z,99664.27
2023-03-26T02:06:15.246Z,99666.12
2023-03-26T02:06:43.684Z,99663.41
2023-03-26T02:07:09.964Z,99659.01
2023-03-26T02:07:58.033Z,99661.33
2023-03-26T02:08:34.795Z,99659.61
2023-03-26T02:09:07.478Z,99661.23
2023-03-26T02:09:30.345Z,99661.20
2023-03-26T02:09:54.786Z,99658.16
2023-03-26T02:10:22.343Z,99661.90
2023-03-26T02:10:46.071Z,99666.10
2023-03-26T02:11:12.088Z,99664.11
2023-03-26T02:11:36.130Z,99662.44
2023-03-26T02:11:58.276Z,99663.38
2023-03-26T02:12:20.476Z,99664.74
2023-03-26T02:12:42.969Z,99665.50
2023-03-26T02:13:05.611Z,99659.05
2023-03-26T02:13:27.566Z,99661.60
2023-03-26T02:13:49.959Z,99661.17
2023-03-26T02:14:12.052Z,99662.79
2023-03-26T02:14:33.834Z,99663.52
2023-03-26T02:14:55.620Z,99663.59
2023-03-26T02:15:17.402Z,99662.33
2023-03-26T02:15:40.114Z,99660.51
2023-03-26T02:16:02.668Z,99663.81
2023-03-26T02:16:28.952Z,99662.30
2023-03-26T02:16:51.188Z,99659.02
2023-03-26T02:17:13.176Z,99661.52
2023-03-26T02:17:39.689Z,99663.02
2023-03-26T02:18:03.565Z,99664.34
2023-03-26T02:18:35.614Z,99661.90
2023-03-26T02:18:58.827Z,99660.70
2023-03-26T02:19:21.022Z,99664.45
2023-03-26T02:19:43.215Z,99664.87
2023-03-26T02:20:09.498Z,99664.50
2023-03-26T02:20:31.901Z,99664.90
2023-03-26T02:20:55.215Z,99668.41
2023-03-26T02:21:21.758Z,99671.08
2023-03-26T02:21:43.597Z,99669.37
2023-03-26T02:22:05.376Z,99670.86
2023-03-26T02:22:29.236Z,99671.31
2023-03-26T02:22:52.996Z,99668.88
2023-03-26T02:23:20.238Z,99670.68
2023-03-26T02:23:47.287Z,99669.23
2023-03-26T02:24:11.309Z,99669.70
2023-03-26T02:24:34.082Z,99667.95
2023-03-26T02:24:56.084Z,99671.73
2023-03-26T02:25:18.887Z,99670.80
2023-03-26T02:25:43.268Z,99670.19
2023-03-26T02:26:08.099Z,99668.73
2023-03-26T02:26:31.393Z,99667.15
2023-03-26T02:27:01.873Z,99667.45
2023-03-26T02:27:24.576Z,99673.30
2023-03-26T02:27:46.387Z,99671.91
2023-03-26T02:28:08.549Z,99671.71
2023-03-26T02:28:31.051Z,99672.47
2023-03-26T02:28:53.270Z,99674.69
2023-03-26T02:29:26.078Z,99671.58
2023-03-26T02:29:52.683Z,99674.37
2023-03-26T02:30:28.972Z,99674.39
2023-03-26T02:30:57.106Z,99675.41
2023-03-26T02:31:19.245Z,99675.23
2023-03-26T02:31:42.863Z,99678.48
2023-03-26T02:32:30.691Z,99679.97
2023-03-26T02:32:53.429Z,99678.83
2023-03-26T02:33:16.914Z,99677.96
2023-03-26T02:33:39.103Z,99678.20
2023-03-26T02:34:00.992Z,99681.07
2023-03-26T02:34:24.279Z,99679.58
2023-03-26T02:34:47.524Z,99679.69
2023-03-26T02:35:09.985Z,99683.62
2023-03-26T02:35:35.093Z,99680.35
2023-03-26T02:36:26.840Z,99680.05
2023-03-26T02:36:51.257Z,99682.30
2023-03-26T02:37:18.383Z,99680.31
2023-03-26T02:37:41.598Z,99684.95
2023-03-26T02:38:10.033Z,99685.00
2023-03-26T02:39:23.872Z,99681.83
2023-03-26T02:40:22.784Z,99683.77
2023-03-26T02:40:46.076Z,99681.59
2023-03-26T02:41:09.117Z,99681.73
2023-03-26T02:41:45.774Z,99685.27
2023-03-26T02:42:07.818Z,99681.98
2023-03-26T02:42:33.900Z,99686.47
2023-03-26T02:42:55.879Z,99685.67
2023-03-26T02:43:18.179Z,99682.20
2023-03-26T02:43:39.864Z,99685.00
2023-03-26T02:44:03.399Z,99689.34
2023-03-26T02:44:43.617Z,99685.11
2023-03-26T02:45:14.263Z,99679.46
2023-03-26T02:45:55.003Z,99678.89
2023-03-26T02:46:35.838Z,99680.77
2023-03-26T02:47:14.990Z,99678.09
2023-03-26T02:47:37.430Z,99676.23
2023-03-26T02:48:19.891Z,99672.67
2023-03-26T02:49:00.011Z,99678.27
2023-03-26T02:49:22.074Z,99676.93
2023-03-26T02:49:43.753Z,99674.36
2023-03-26T02:50:08.338Z,99674.95
2023-03-26T02:50:49.521Z,99672.10
2023-03-26T02:51:25.255Z,99670.33
2023-03-26T02:51:55.681Z,99663.88
2023-03-26T02:52:24.850Z,99672.27
2023-03-26T02:52:49.692Z,99669.70
2023-03-26T02:53:13.420Z,99662.45
2023-03-26T02:53:38.889Z,99664.53
2023-03-26T02:54:15.701Z,99662.32
2023-03-26T02:55:04.796Z,99664.50
2023-03-26T02:55:29.173Z,99661.27
2023-03-26T02:55:52.245Z,99667.41
2023-03-26T02:56:14.852Z,99665.59
2023-03-26T02:56:45.679Z,99663.24
2023-03-26T02:57:33.299Z,99662.63
2023-03-26T02:57:57.943Z,99663.64
2023-03-26T02:58:31.132Z,99663.67
2023-03-26T02:58:54.297Z,99662.23
2023-03-26T02:59:16.498Z,99666.48
2023-03-26T02:59:41.755Z,99663.25
2023-03-26T03:00:25.119Z,99664.27
2023-03-26T03:00:50.305Z,99664.44
2023-03-26T03:01:30.223Z,99664.91
2023-03-26T03:01:52.644Z,99664.80
2023-03-26T03:02:15.534Z,99665.39
2023-03-26T03:02:38.287Z,99662.45
2023-03-26T03:03:16.779Z,99663.29
2023-03-26T03:03:58.461Z,99666.33
2023-03-26T03:04:31.192Z,99660.04
2023-03-26T03:04:55.572Z,99661.61
2023-03-26T03:05:20.285Z,99664.47
2023-03-26T03:05:46.920Z,99662.19
2023-03-26T03:06:22.774Z,99662.79
2023-03-26T03:07:50.511Z,99663.52
2023-03-26T03:08:13.973Z,99660.44
2023-03-26T03:08:50.149Z,99661.55
2023-03-26T03:09:13.472Z,99661.64
2023-03-26T03:09:55.411Z,99660.63
2023-03-26T03:10:57.193Z,99659.98
2023-03-26T03:11:32.169Z,99659.33
2023-03-26T03:11:55.571Z,99659.67
2023-03-26T03:12:18.481Z,99658.48
2023-03-26T03:12:45.788Z,99658.36
2023-03-26T03:13:13.810Z,99658.77
2023-03-26T03:13:38.561Z,99658.36
2023-03-26T03:14:07.410Z,99659.29
2023-03-26T03:14:31.953Z,99660.34
2023-03-26T03:14:56.442Z,99660.41
2023-03-26T03:15:19.507Z,99661.70
2023-03-26T03:15:44.360Z,99659.85
2023-03-26T03:16:08.603Z,99660.97
2023-03-26T03:16:32.766Z,99661.94
2023-03-26T03:17:00.396Z,99659.72
2023-03-26T03:17:23.608Z,99660.84
2023-03-26T03:17:47.642Z,99660.08
2023-03-26T03:18:11.431Z,99658.67
2023-03-26T03:18:34.646Z,99658.56
2023-03-26T03:18:58.375Z,99659.14
2023-03-26T03:19:41.234Z,99658.12
2023-03-26T03:20:12.369Z,99657.86
2023-03-26T03:20:36.460Z,99651.11
2023-03-26T03:21:00.904Z,99657.56
2023-03-26T03:21:24.157Z,99653.04
2023-03-26T03:21:47.334Z,99654.98
2023-03-26T03:22:10.858Z,99652.40
2023-03-26T03:22:35.812Z,99654.48
2023-03-26T03:22:58.927Z,99644.84
2023-03-26T03:23:22.396Z,99650.16
2023-03-26T03:23:46.590Z,99649.89
2023-03-26T03:24:11.784Z,99649.96
2023-03-26T03:24:43.997Z,99649.46
2023-03-26T03:25:09.247Z,99648.77
2023-03-26T03:25:32.758Z,99648.08
2023-03-26T03:26:03.842Z,99648.38
2023-03-26T03:26:30.173Z,99651.41
2023-03-26T03:26:58.152Z,99653.46
2023-03-26T03:27:34.662Z,99654.33
2023-03-26T03:28:04.115Z,99655.11
2023-03-26T03:28:27.637Z,99651.35
2023-03-26T03:28:51.219Z,99651.41
2023-03-26T03:29:15.818Z,99649.73
2023-03-26T03:29:39.089Z,99650.02
2023-03-26T03:30:40.960Z,99653.33
2023-03-26T03:31:14.302Z,99645.96
2023-03-26T03:31:37.564Z,99647.31
2023-03-26T03:32:01.599Z,99648.60
2023-03-26T03:32:35.367Z,99643.38
2023-03-26T03:33:07.424Z,99644.04
2023-03-26T03:33:33.236Z,99647.20
2023-03-26T03:33:56.282Z,99643.64
2023-03-26T03:34:21.918Z,99643.02
2023-03-26T03:34:46.335Z,99640.88
2023-03-26T03:35:09.988Z,99642.26
2023-03-26T03:35:33.763Z,99642.59
2023-03-26T03:35:57.396Z,99643.98
2023-03-26T03:36:28.077Z,99641.49
2023-03-26T03:37:05.875Z,99643.39
2023-03-26T03:37:36.406Z,99639.75
2023-03-26T03:38:00.282Z,99641.27
2023-03-26T03:38:49.203Z,99637.69
2023-03-26T03:39:15.119Z,99635.91
2023-03-26T03:39:38.765Z,99639.08
2023-03-26T03:40:02.668Z,99641.11
2023-03-26T03:40:29.391Z,99638.89
2023-03-26T03:40:54.459Z,99640.77
2023-03-26T03:41:21.244Z,99641.73
2023-03-26T03:41:44.785Z,99639.73
2023-03-26T03:42:09.520Z,99644.01
2023-03-26T03:42:34.578Z,99641.89
2023-03-26T03:42:59.570Z,99643.71
2023-03-26T03:43:29.511Z,99643.64
2023-03-26T03:44:04.376Z,99643.73
2023-03-26T03:44:28.825Z,99644.73
2023-03-26T03:44:52.341Z,99642.32
2023-03-26T03:45:38.685Z,99645.95
2023-03-26T03:46:25.055Z,99644.92
2023-03-26T03:46:49.443Z,99644.48
2023-03-26T03:47:15.746Z,99645.72
2023-03-26T03:47:39.628Z,99645.06
2023-03-26T03:48:03.952Z,99645.77
2023-03-26T03:48:38.309Z,99646.32
2023-03-26T03:49:02.532Z,99642.36
2023-03-26T03:49:31.857Z,99645.10
2023-03-26T03:49:56.712Z,99644.92
2023-03-26T03:50:19.923Z,99644.52
2023-03-26T03:50:54.085Z,99645.80
2023-03-26T03:51:26.628Z,99645.23
2023-03-26T03:51:58.853Z,99648.17
2023-03-26T03:52:28.282Z,99647.53
2023-03-26T03:52:51.394Z,99645.52
2023-03-26T03:53:16.501Z,99648.11
2023-03-26T03:53:40.999Z,99650.30
2023-03-26T03:54:24.462Z,99647.98
2023-03-26T03:55:31.453Z,99645.39
2023-03-26T03:55:55.238Z,99647.24
2023-03-26T03:56:24.285Z,99646.34
2023-03-26T03:57:19.558Z,99645.33
2023-03-26T03:58:00.175Z,99644.66
2023-03-26T03:58:24.603Z,99640.93
2023-03-26T03:58:48.143Z,99639.61
2023-03-26T03:59:15.562Z,99638.68
2023-03-26T03:59:38.962Z,99637.02
2023-03-26T04:00:12.098Z,99637.23
2023-03-26T04:00:45.339Z,99634.02
2023-03-26T04:01:27.164Z,99633.61
2023-03-26T04:01:53.977Z,99632.80
2023-03-26T04:02:30.498Z,99631.81
2023-03-26T04:03:06.441Z,99635.88
2023-03-26T04:03:33.476Z,99634.05
2023-03-26T04:04:00.303Z,99635.05
2023-03-26T04:04:38.256Z,99635.75
2023-03-26T04:05:05.730Z,99635.55
2023-03-26T04:05:29.412Z,99636.14
2023-03-26T04:05:55.487Z,99634.85
2023-03-26T04:06:20.402Z,99638.61
2023-03-26T04:07:12.036Z,99632.42
2023-03-26T04:07:57.659Z,99633.52
2023-03-26T04:09:00.856Z,99634.17
2023-03-26T04:09:52.569Z,99632.16
2023-03-26T04:10:19.006Z,99636.69
2023-03-26T04:11:01.232Z,99633.09
2023-03-26T04:11:56.868Z,99636.78
2023-03-26T04:12:22.947Z,99637.67
2023-03-26T04:12:56.800Z,99633.94
2023-03-26T04:13:40.735Z,99636.85
2023-03-26T04:14:18.315Z,99635.77
2023-03-26T04:15:04.645Z,99635.80
2023-03-26T04:15:28.783Z,99637.39
2023-03-26T04:15:52.954Z,99636.16
2023-03-26T04:16:17.720Z,99640.20
2023-03-26T04:16:45.298Z,99639.73
2023-03-26T04:17:17.303Z,99640.89
2023-03-26T04:17:42.985Z,99637.79
2023-03-26T04:18:10.698Z,99638.36
2023-03-26T04:18:34.615Z,99639.99
2023-03-26T04:19:04.271Z,99637.38
2023-03-26T04:19:28.414Z,99639.23
2023-03-26T04:19:55.329Z,99635.80
2023-03-26T04:20:21.098Z,99635.49
2023-03-26T04:20:48.309Z,99635.73
2023-03-26T04:21:17.127Z,99635.23
2023-03-26T04:21:43.032Z,99636.39
2023-03-26T04:22:06.628Z,99637.52
2023-03-26T04:22:35.061Z,99635.80
2023-03-26T04:23:04.618Z,99636.45
2023-03-26T04:23:35.112Z,99635.98
2023-03-26T04:24:05.470Z,99639.29
2023-03-26T04:25:12.383Z,99636.45
2023-03-26T04:25:48.582Z,99638.08
2023-03-26T04:26:17.314Z,99638.94
2023-03-26T04:26:58.416Z,99641.02
2023-03-26T04:27:30.532Z,99639.39
2023-03-26T04:28:06.633Z,99639.54
2023-03-26T04:28:53.576Z,99638.60
2023-03-26T04:29:27.951Z,99638.93
2023-03-26T04:29:54.286Z,99638.17
2023-03-26T04:30:20.819Z,99637.08
2023-03-26T04:30:57.254Z,99640.21
2023-03-26T04:31:30.634Z,99641.98
2023-03-26T04:31:59.010Z,99640.56
2023-03-26T04:32:24.799Z,99641.52
2023-03-26T04:32:49.250Z,99639.31
2023-03-26T04:33:15.711Z,99637.80
2023-03-26T04:33:40.154Z,99642.11
2023-03-26T04:34:07.459Z,99642.36
2023-03-26T04:34:36.503Z,99639.51
2023-03-26T04:35:06.991Z,99639.11
2023-03-26T04:35:34.864Z,99642.33
2023-03-26T04:36:02.863Z,99637.26
2023-03-26T04:36:29.130Z,99636.89
2023-03-26T04:36:54.949Z,99635.28
2023-03-26T04:37:22.294Z,99638.16
2023-03-26T04:37:50.921Z,99640.52
2023-03-26T04:38:18.649Z,99638.50
2023-03-26T04:38:45.768Z,99638.07
2023-03-26T04:39:10.601Z,99640.26
2023-03-26T04:40:17.396Z,99640.12
2023-03-26T04:41:01.181Z,99643.59
2023-03-26T04:42:00.590Z,99644.67
2023-03-26T04:42:33.582Z,99645.80
2023-03-26T04:43:13.710Z,99645.95
2023-03-26T04:44:17.181Z,99650.42
2023-03-26T04:44:50.940Z,99650.23
2023-03-26T04:45:17.726Z,99650.86
2023-03-26T04:45:41.698Z,99655.17
2023-03-26T04:46:04.921Z,99651.52
2023-03-26T04:46:33.804Z,99658.02
2023-03-26T04:47:09.350Z,99656.45
2023-03-26T04:47:39.864Z,99658.55
2023-03-26T04:48:14.609Z,99656.67
2023-03-26T04:48:41.187Z,99656.31
2023-03-26T04:49:05.240Z,99657.86
2023-03-26T04:49:28.971Z,99656.52
2023-03-26T04:49:52.267Z,99653.88
2023-03-26T04:50:15.902Z,99658.23
2023-03-26T04:50:41.788Z,99656.39
2023-03-26T04:51:07.257Z,99658.30
2023-03-26T04:51:35.078Z,99655.75
2023-03-26T04:51:58.396Z,99657.48
2023-03-26T04:52:45.429Z,99659.98
2023-03-26T04:53:31.956Z,99657.36
2023-03-26T04:54:20.434Z,99660.31
2023-03-26T04:54:53.982Z,99661.86
2023-03-26T04:55:38.753Z,99660.69
2023-03-26T04:56:43.518Z,99660.82
2023-03-26T04:57:35.499Z,99662.60
2023-03-26T04:58:04.415Z,99663.71
2023-03-26T04:58:50.542Z,99668.34
2023-03-26T04:59:15.090Z,99665.85
2023-03-26T04:59:41.579Z,99667.43
2023-03-26T05:00:19.656Z,99667.88
2023-03-26T05:00:49.852Z,99663.81
2023-03-26T05:01:17.142Z,99666.55
2023-03-26T05:01:41.915Z,99667.52
2023-03-26T05:02:06.597Z,99666.51
2023-03-26T05:02:40.271Z,99665.71
2023-03-26T05:03:03.908Z,99666.56
2023-03-26T05:03:32.003Z,99666.98
2023-03-26T05:04:01.383Z,99665.02
2023-03-26T05:04:26.911Z,99664.33
2023-03-26T05:04:50.171Z,99663.10
2023-03-26T05:05:13.899Z,99664.40
2023-03-26T05:05:37.281Z,99668.39
2023-03-26T05:06:01.321Z,99667.14
2023-03-26T05:06:26.184Z,99665.43
2023-03-26T05:06:56.985Z,99664.52
2023-03-26T05:07:33.347Z,99665.69
2023-03-26T05:07:59.546Z,99666.55
2023-03-26T05:08:23.174Z,99665.82
2023-03-26T05:08:46.598Z,99667.04
2023-03-26T05:09:17.587Z,99666.48
2023-03-26T05:10:03.558Z,99663.60
2023-03-26T05:10:48.633Z,99664.00
2023-03-26T05:11:20.821Z,99659.98
2023-03-26T05:11:44.150Z,99659.89
2023-03-26T05:12:07.388Z,99661.62
2023-03-26T05:13:02.692Z,99661.81
2023-03-26T05:13:34.496Z,99660.29
2023-03-26T05:14:03.952Z,99664.08
2023-03-26T05:14:31.714Z,99664.19
2023-03-26T05:14:58.259Z,99663.98
2023-03-26T05:15:45.107Z,99661.77
2023-03-26T05:16:16.659Z,99663.43
2023-03-26T05:16:58.128Z,99658.20
2023-03-26T05:17:21.649Z,99662.80
2023-03-26T05:17:46.731Z,99663.13
2023-03-26T05:18:17.698Z,99659.54
2023-03-26T05:18:44.696Z,99662.17
2023-03-26T05:19:08.838Z,99664.83
2023-03-26T05:19:32.764Z,99660.52
2023-03-26T05:19:55.776Z,99669.55
2023-03-26T05:20:22.887Z,99664.52
2023-03-26T05:20:52.816Z,99666.95
2023-03-26T05:21:18.619Z,99666.21
2023-03-26T05:21:42.145Z,99666.84
2023-03-26T05:22:06.278Z,99667.60
2023-03-26T05:22:30.925Z,99666.49
2023-03-26T05:23:17.675Z,99663.14
2023-03-26T05:23:46.001Z,99665.90
2023-03-26T05:24:13.620Z,99671.19
2023-03-26T05:24:37.464Z,99670.23
2023-03-26T05:25:01.817Z,99672.45
2023-03-26T05:25:25.825Z,99666.33
2023-03-26T05:25:49.345Z,99667.71
2023-03-26T05:26:14.806Z,99672.38
2023-03-26T05:26:38.337Z,99671.25
2023-03-26T05:27:01.753Z,99664.12
2023-03-26T05:27:26.194Z,99667.98
2023-03-26T05:27:50.648Z,99668.04
2023-03-26T05:28:15.694Z,99665.21
2023-03-26T05:28:52.475Z,99662.40
2023-03-26T05:29:29.265Z,99663.56
2023-03-26T05:29:53.672Z,99661.71